• Join FlightAware (Why Join?)
  • Login
  • US Flag 
09:45AM EST


 

Airport Tracker/Info


-or-


 

Live Flight TrackerFlight Track Log ✈ N1944E ✈ 18-Jan-2014 ✈ KBZN - KCOD

Flight Track Log - Related Links

Times and Time Zones

All times are in EST time to prevent confusion due to time zone crossing. See the N1944E flight status page for this flight to view local times or setup timezone preferences in your user account.

Time Position Orientation Groundspeed Altitude Reporting Facility
EST Latitude Longitude Course Direction KTS MPH feet Rate Location/Type
07:12PM 45.7658 -111.1358 135° Southeast 114 131 4,900  Level Salt Lake Center
07:13PM 45.7592 -111.1264 135° Southeast 118 136 5,200 780 Climbing Salt Lake Center
07:14PM 45.7378 -111.0833 125° Southeast 140 161 6,000 780 Climbing Salt Lake Center
07:14PM 45.7358 -111.0792 124° Southeast 133 153 6,100 900 Climbing Salt Lake Center
07:15PM 45.7106 -111.0303 127° Southeast 149 171 7,000 840 Climbing Salt Lake Center
07:16PM 45.6800 -110.9858 135° Southeast 153 176 7,900 900 Climbing Salt Lake Center
07:17PM 45.6522 -110.9347 128° Southeast 158 182 8,900 960 Climbing Salt Lake Center
07:18PM 45.6225 -110.8822 129° Southeast 164 189 9,900 900 Climbing Salt Lake Center
07:19PM 45.5914 -110.8306 131° Southeast 168 193 10,800 900 Climbing Salt Lake Center
07:20PM 45.5586 -110.7758 131° Southeast 176 203 11,800 900 Climbing Salt Lake Center
07:21PM 45.5264 -110.7183 129° Southeast 181 208 12,700 840 Climbing Salt Lake Center
07:22PM 45.4917 -110.6583 130° Southeast 191 220 13,600 840 Climbing Salt Lake Center
07:23PM 45.4561 -110.5967 129° Southeast 199 229 14,500 840 Climbing Salt Lake Center
07:24PM 45.4228 -110.5456 133° Southeast 195 224 15,400 720 Climbing Salt Lake Center
07:25PM 45.3889 -110.4833 128° Southeast 196 226 16,000 240 Climbing Salt Lake Center
07:26PM 45.3481 -110.4161 131° Southeast 223 257 16,000  Level Salt Lake Center
07:27PM 45.3072 -110.3456 129° Southeast 231 266 16,000 240 Level Salt Lake Center
07:28PM 45.2717 -110.2819 128° Southeast 208 239 16,600 480 Climbing Salt Lake Center
07:29PM 45.2319 -110.2072 127° Southeast 200 230 17,000 120 Climbing Salt Lake Center
07:30PM 45.1969 -110.1494 131° Southeast 195 224 16,900 -60 Descending Salt Lake Center
07:31PM 45.1553 -110.0833 132° Southeast 213 245 16,900  Level Salt Lake Center
07:32PM 45.1136 -110.0172 132° Southeast 222 255 16,900  Level Salt Lake Center
07:33PM 45.0708 -109.9444 130° Southeast 230 265 17,000 60 Climbing Salt Lake Center
07:35PM 45.0174 -109.8480 128° Southeast  Level FlightAware Approximate
07:42PM 44.7755 -109.4425 130° Southeast  Level FlightAware Approximate
07:43PM 44.7404 -109.3844 130° Southeast  Level FlightAware Approximate
07:44PM 44.7053 -109.3264 130° Southeast  Level FlightAware Approximate
07:45PM 44.6702 -109.2685 130° Southeast  Level FlightAware Approximate
07:46PM 44.6350 -109.2106 130° Southeast  Level FlightAware Approximate
07:47PM 44.5999 -109.1529 131° Southeast  Level FlightAware Approximate
07:48PM 44.5647 -109.0952 131° Southeast  Level FlightAware Approximate
07:49PM 44.5294 -109.0375 131° Southeast  Level FlightAware Approximate
07:50PM 44.5167 -109.0167 130° Southeast  Level FlightAware Approximate
07:51PM 44.5202 -109.0238 130° Southeast  Level Estimated
07:52PM 44.5167 -109.0167 130° Southeast  Level FlightAware Approximate
07:53PM 44.5202 -109.0238 130° Southeast  Level Estimated
07:54PM 44.5167 -109.0167 130° Southeast  Level FlightAware Approximate
07:55PM 44.5202 -109.0238 130° Southeast  Level Estimated
07:56PM 44.5167 -109.0167 130° Southeast  Level FlightAware Approximate
07:57PM 44.5202 -109.0238 130° Southeast  Level Estimated
07:58PM 44.5167 -109.0167 130° Southeast  Level FlightAware Approximate
07:59PM 44.5202 -109.0238 130° Southeast  Level Estimated
08:00PM 44.5167 -109.0167 130° Southeast  Level FlightAware Approximate
08:01PM 44.5202 -109.0238 130° Southeast  Level Estimated
08:02PM 44.5167 -109.0167 130° Southeast  Level FlightAware Approximate
08:03PM 44.5202 -109.0238 130° Southeast  Level Estimated
08:04PM 44.5167 -109.0167 130° Southeast  Level FlightAware Approximate
08:05PM 44.5202 -109.0238 130° Southeast  Level Estimated